Comandante Luis Piedra Buena, Argentina
Current Conditions -  °F | °C
As of 5:00 AM on Sunday 23 Nov 2014 (Local Time) from SAWG Reporting Station
Clear Clear  
Wind Chill: -4°   Ceiling: Unl
Heat Index:   Visibility: 6mi
Dew Point: -3°   Wind: 9mph
Humidity: 80%   Direction: 230°SW
Pressure: 29.53"   Gusts: NA
Location:  49.98°S, 68.9°W
Report Text: SAWG 230800Z 23008KT CAVOK 00/M03 Q1000
Loading
Personal Weather Stations






























Interactive Weather Map New forecast layout! Learn more

10-Day Weather Forecast

Advertisements
Track Severe Weather on mobile